sensor_id;sensor_type;location;lat;lon;timestamp;pressure;altitude;pressure_sealevel;temperature;humidity
41246;BME280;53880;47.526;18.986;2023-03-23T00:01:13;99600.16;;;20.55;49.00
41246;BME280;53880;47.526;18.986;2023-03-23T00:03:29;99607.50;;;20.53;48.99
41246;BME280;53880;47.526;18.986;2023-03-23T00:05:47;99611.19;;;20.52;48.87
41246;BME280;53880;47.526;18.986;2023-03-23T00:08:08;99610.34;;;20.51;48.87
41246;BME280;53880;47.526;18.986;2023-03-23T00:10:34;99612.19;;;20.51;49.22
41246;BME280;53880;47.526;18.986;2023-03-23T00:12:52;99606.03;;;20.50;49.08
41246;BME280;53880;47.526;18.986;2023-03-23T00:15:08;99604.34;;;20.49;48.98
41246;BME280;53880;47.526;18.986;2023-03-23T00:17:34;99596.47;;;20.48;49.00
41246;BME280;53880;47.526;18.986;2023-03-23T00:19:52;99600.16;;;20.47;49.29
41246;BME280;53880;47.526;18.986;2023-03-23T00:22:09;99594.78;;;20.47;49.19
41246;BME280;53880;47.526;18.986;2023-03-23T00:24:25;99598.31;;;20.47;49.46
41246;BME280;53880;47.526;18.986;2023-03-23T00:26:48;99592.97;;;20.47;49.20
41246;BME280;53880;47.526;18.986;2023-03-23T00:29:04;99597.47;;;20.47;49.40
41246;BME280;53880;47.526;18.986;2023-03-23T00:31:19;99596.66;;;20.46;49.20
41246;BME280;53880;47.526;18.986;2023-03-23T00:33:40;99593.13;;;20.46;49.28
41246;BME280;53880;47.526;18.986;2023-03-23T00:35:58;99596.66;;;20.46;49.17
41246;BME280;53880;47.526;18.986;2023-03-23T00:38:13;99597.66;;;20.45;49.32
41246;BME280;53880;47.526;18.986;2023-03-23T00:40:31;99595.97;;;20.44;49.10
41246;BME280;53880;47.526;18.986;2023-03-23T00:42:50;99602.34;;;20.43;49.28
41246;BME280;53880;47.526;18.986;2023-03-23T00:45:08;99599.66;;;20.43;49.10
41246;BME280;53880;47.526;18.986;2023-03-23T00:47:27;99586.47;;;20.42;49.17
41246;BME280;53880;47.526;18.986;2023-03-23T00:49:42;99588.09;;;20.43;49.08
41246;BME280;53880;47.526;18.986;2023-03-23T00:51:58;99585.63;;;20.41;49.28
41246;BME280;53880;47.526;18.986;2023-03-23T00:54:14;99587.44;;;20.41;49.33
41246;BME280;53880;47.526;18.986;2023-03-23T00:56:35;99591.94;;;20.40;49.09
41246;BME280;53880;47.526;18.986;2023-03-23T00:58:53;99584.94;;;20.39;49.23
41246;BME280;53880;47.526;18.986;2023-03-23T01:01:10;99585.94;;;20.38;49.04
41246;BME280;53880;47.526;18.986;2023-03-23T01:03:31;99577.91;;;20.38;49.25
41246;BME280;53880;47.526;18.986;2023-03-23T01:05:49;99577.06;;;20.38;49.07
41246;BME280;53880;47.526;18.986;2023-03-23T01:08:07;99575.41;;;20.37;49.27
41246;BME280;53880;47.526;18.986;2023-03-23T01:10:25;99577.25;;;20.36;49.11
41246;BME280;53880;47.526;18.986;2023-03-23T01:12:52;99568.56;;;20.34;49.19
41246;BME280;53880;47.526;18.986;2023-03-23T01:15:16;99571.22;;;20.34;49.22
41246;BME280;53880;47.526;18.986;2023-03-23T01:17:36;99573.06;;;20.34;49.13
41246;BME280;53880;47.526;18.986;2023-03-23T01:19:56;99572.25;;;20.33;49.37
41246;BME280;53880;47.526;18.986;2023-03-23T01:22:13;99572.38;;;20.32;49.36
41246;BME280;53880;47.526;18.986;2023-03-23T01:24:35;99573.25;;;20.32;49.32
41246;BME280;53880;47.526;18.986;2023-03-23T01:26:55;99577.75;;;20.32;49.05
41246;BME280;53880;47.526;18.986;2023-03-23T01:29:13;99567.22;;;20.30;49.30
41246;BME280;53880;47.526;18.986;2023-03-23T01:31:30;99570.06;;;20.29;49.35
41246;BME280;53880;47.526;18.986;2023-03-23T01:33:49;99569.22;;;20.28;49.19
41246;BME280;53880;47.526;18.986;2023-03-23T01:36:14;99563.22;;;20.26;49.42
41246;BME280;53880;47.526;18.986;2023-03-23T01:38:31;99568.56;;;20.26;49.13
41246;BME280;53880;47.526;18.986;2023-03-23T01:40:49;99563.38;;;20.25;49.50
41246;BME280;53880;47.526;18.986;2023-03-23T01:43:11;99560.72;;;20.25;49.33
41246;BME280;53880;47.526;18.986;2023-03-23T01:45:32;99567.91;;;20.24;49.46
41246;BME280;53880;47.526;18.986;2023-03-23T01:48:23;99563.53;;;20.23;49.48
41246;BME280;53880;47.526;18.986;2023-03-23T01:53:07;99553.19;;;20.20;49.47
41246;BME280;53880;47.526;18.986;2023-03-23T01:55:27;99559.50;;;20.19;49.63
41246;BME280;53880;47.526;18.986;2023-03-23T01:57:47;99553.31;;;20.19;49.59
41246;BME280;53880;47.526;18.986;2023-03-23T02:00:06;99555.16;;;20.18;49.38
41246;BME280;53880;47.526;18.986;2023-03-23T02:02:30;99557.00;;;20.18;49.47
41246;BME280;53880;47.526;18.986;2023-03-23T02:04:48;99557.16;;;20.16;49.45
41246;BME280;53880;47.526;18.986;2023-03-23T02:07:04;99560.66;;;20.17;49.76
41246;BME280;53880;47.526;18.986;2023-03-23T02:09:25;99556.34;;;20.16;49.67
41246;BME280;53880;47.526;18.986;2023-03-23T02:11:41;99557.16;;;20.16;49.62
41246;BME280;53880;47.526;18.986;2023-03-23T02:13:59;99558.16;;;20.15;49.57
41246;BME280;53880;47.526;18.986;2023-03-23T02:21:23;99572.53;;;20.14;49.64
41246;BME280;53880;47.526;18.986;2023-03-23T02:24:18;99568.19;;;20.13;49.52
41246;BME280;53880;47.526;18.986;2023-03-23T02:41:13;99576.72;;;20.09;49.52
41246;BME280;53880;47.526;18.986;2023-03-23T02:43:40;99570.50;;;20.08;49.52
41246;BME280;53880;47.526;18.986;2023-03-23T02:46:00;99577.69;;;20.08;49.77
41246;BME280;53880;47.526;18.986;2023-03-23T02:48:22;99572.53;;;20.06;49.52
41246;BME280;53880;47.526;18.986;2023-03-23T02:50:51;99578.88;;;20.05;49.76
41246;BME280;53880;47.526;18.986;2023-03-23T02:53:13;99578.03;;;20.05;49.54
41246;BME280;53880;47.526;18.986;2023-03-23T02:55:32;99579.03;;;20.04;49.76
41246;BME280;53880;47.526;18.986;2023-03-23T02:57:55;99575.56;;;20.03;49.83
41246;BME280;53880;47.526;18.986;2023-03-23T03:00:15;99575.69;;;20.02;49.83
41246;BME280;53880;47.526;18.986;2023-03-23T03:02:36;99574.88;;;20.01;49.62
41246;BME280;53880;47.526;18.986;2023-03-23T03:10:40;99568.16;;;19.97;49.72
41246;BME280;53880;47.526;18.986;2023-03-23T03:13:12;99571.84;;;19.96;49.92
41246;BME280;53880;47.526;18.986;2023-03-23T03:15:37;99579.88;;;19.96;49.99
41246;BME280;53880;47.526;18.986;2023-03-23T03:18:00;99575.50;;;19.95;49.72
41246;BME280;53880;47.526;18.986;2023-03-23T03:20:18;99575.50;;;19.95;49.93
41246;BME280;53880;47.526;18.986;2023-03-23T03:22:44;99576.34;;;19.96;49.94
41246;BME280;53880;47.526;18.986;2023-03-23T03:25:09;99580.06;;;19.95;49.89
41246;BME280;53880;47.526;18.986;2023-03-23T03:27:30;99574.00;;;19.93;49.92
41246;BME280;53880;47.526;18.986;2023-03-23T03:30:10;99589.06;;;19.94;50.04
41246;BME280;53880;47.526;18.986;2023-03-23T03:32:43;99587.38;;;19.93;49.87
41246;BME280;53880;47.526;18.986;2023-03-23T03:35:02;99596.41;;;19.92;50.04
41246;BME280;53880;47.526;18.986;2023-03-23T03:37:19;99592.91;;;19.91;49.78
41246;BME280;53880;47.526;18.986;2023-03-23T03:39:40;99593.91;;;19.90;49.90
41246;BME280;53880;47.526;18.986;2023-03-23T03:41:58;99595.75;;;19.90;49.80
41246;BME280;53880;47.526;18.986;2023-03-23T03:44:18;99588.56;;;19.90;50.03
41246;BME280;53880;47.526;18.986;2023-03-23T03:46:39;99587.91;;;19.88;49.92
41246;BME280;53880;47.526;18.986;2023-03-23T03:48:55;99589.72;;;19.88;50.19
41246;BME280;53880;47.526;18.986;2023-03-23T03:51:13;99591.56;;;19.87;50.02
41246;BME280;53880;47.526;18.986;2023-03-23T03:53:37;99589.06;;;19.86;49.81
41246;BME280;53880;47.526;18.986;2023-03-23T03:55:54;99594.41;;;19.86;49.98
41246;BME280;53880;47.526;18.986;2023-03-23T03:58:19;99593.56;;;19.85;50.04
41246;BME280;53880;47.526;18.986;2023-03-23T04:01:00;99604.25;;;19.85;50.08
41246;BME280;53880;47.526;18.986;2023-03-23T04:03:24;99593.72;;;19.84;49.97
41246;BME280;53880;47.526;18.986;2023-03-23T04:05:56;99598.22;;;19.83;49.97
41246;BME280;53880;47.526;18.986;2023-03-23T04:08:14;99605.41;;;19.83;49.94
41246;BME280;53880;47.526;18.986;2023-03-23T04:10:32;99602.75;;;19.83;50.12
41246;BME280;53880;47.526;18.986;2023-03-23T04:12:51;99603.59;;;19.83;50.11
41246;BME280;53880;47.526;18.986;2023-03-23T04:15:46;99607.25;;;19.82;50.20
41246;BME280;53880;47.526;18.986;2023-03-23T04:18:05;99602.91;;;19.81;50.24
41246;BME280;53880;47.526;18.986;2023-03-23T04:20:20;99604.75;;;19.81;50.15
41246;BME280;53880;47.526;18.986;2023-03-23T04:22:44;99613.59;;;19.81;50.03
41246;BME280;53880;47.526;18.986;2023-03-23T04:25:02;99610.09;;;19.81;50.13
41246;BME280;53880;47.526;18.986;2023-03-23T04:27:25;99603.09;;;19.80;50.07
41246;BME280;53880;47.526;18.986;2023-03-23T04:29:43;99610.25;;;19.79;50.34
41246;BME280;53880;47.526;18.986;2023-03-23T04:32:32;99608.56;;;19.78;50.27
41246;BME280;53880;47.526;18.986;2023-03-23T04:34:47;99611.25;;;19.78;50.33
41246;BME280;53880;47.526;18.986;2023-03-23T04:37:04;99609.59;;;19.77;50.03
41246;BME280;53880;47.526;18.986;2023-03-23T04:39:30;99605.22;;;19.76;50.31
41246;BME280;53880;47.526;18.986;2023-03-23T04:41:48;99614.09;;;19.76;50.28
41246;BME280;53880;47.526;18.986;2023-03-23T04:44:16;99613.25;;;19.76;50.39
41246;BME280;53880;47.526;18.986;2023-03-23T04:46:37;99612.41;;;19.75;50.08
41246;BME280;53880;47.526;18.986;2023-03-23T04:48:59;99607.22;;;19.74;50.16
41246;BME280;53880;47.526;18.986;2023-03-23T04:51:22;99611.72;;;19.73;50.41
41246;BME280;53880;47.526;18.986;2023-03-23T04:53:42;99609.22;;;19.72;50.42
41246;BME280;53880;47.526;18.986;2023-03-23T04:56:00;99607.56;;;19.71;50.13
41246;BME280;53880;47.526;18.986;2023-03-23T04:58:24;99601.53;;;19.69;50.09
41246;BME280;53880;47.526;18.986;2023-03-23T05:01:05;99604.06;;;19.70;50.07
41246;BME280;53880;47.526;18.986;2023-03-23T05:03:26;99609.41;;;19.70;50.20
41246;BME280;53880;47.526;18.986;2023-03-23T05:05:46;99615.59;;;19.71;50.22
41246;BME280;53880;47.526;18.986;2023-03-23T05:08:09;99616.25;;;19.73;50.22
41246;BME280;53880;47.526;18.986;2023-03-23T05:10:31;99621.25;;;19.76;50.35
41246;BME280;53880;47.526;18.986;2023-03-23T05:12:56;99622.47;;;19.82;50.14
41246;BME280;53880;47.526;18.986;2023-03-23T05:15:15;99623.31;;;19.90;49.99
41246;BME280;53880;47.526;18.986;2023-03-23T05:17:34;99625.81;;;20.00;49.97
41246;BME280;53880;47.526;18.986;2023-03-23T05:20:03;99619.50;;;20.09;49.91
41246;BME280;53880;47.526;18.986;2023-03-23T05:22:35;99620.06;;;20.20;50.02
41246;BME280;53880;47.526;18.986;2023-03-23T05:24:58;99617.06;;;20.31;50.03
41246;BME280;53880;47.526;18.986;2023-03-23T05:27:21;99612.53;;;20.40;49.76
41246;BME280;53880;47.526;18.986;2023-03-23T05:29:39;99609.88;;;20.48;49.86
41246;BME280;53880;47.526;18.986;2023-03-23T05:32:00;99610.69;;;20.57;49.92
41246;BME280;53880;47.526;18.986;2023-03-23T05:34:16;99607.00;;;20.66;49.72
41246;BME280;53880;47.526;18.986;2023-03-23T05:36:37;99605.97;;;20.75;49.87
41246;BME280;53880;47.526;18.986;2023-03-23T05:39:27;99596.78;;;20.85;50.05
41246;BME280;53880;47.526;18.986;2023-03-23T05:42:03;99593.88;;;20.95;50.09
41246;BME280;53880;47.526;18.986;2023-03-23T05:44:33;99604.75;;;21.01;49.60
41246;BME280;53880;47.526;18.986;2023-03-23T05:46:49;99589.06;;;21.06;49.86
41246;BME280;53880;47.526;18.986;2023-03-23T05:49:08;99594.69;;;21.11;49.75
41246;BME280;53880;47.526;18.986;2023-03-23T05:51:31;99593.38;;;21.15;49.76
41246;BME280;53880;47.526;18.986;2023-03-23T05:53:46;99600.88;;;21.20;49.66
41246;BME280;53880;47.526;18.986;2023-03-23T05:56:10;99592.97;;;21.26;49.79
41246;BME280;53880;47.526;18.986;2023-03-23T05:58:50;99592.13;;;21.34;49.73
41246;BME280;53880;47.526;18.986;2023-03-23T06:01:09;99603.84;;;21.41;49.56
41246;BME280;53880;47.526;18.986;2023-03-23T06:03:27;99590.44;;;21.41;49.58
41246;BME280;53880;47.526;18.986;2023-03-23T06:05:56;99594.94;;;21.41;49.29
41246;BME280;53880;47.526;18.986;2023-03-23T06:08:25;99600.97;;;21.43;49.28
41246;BME280;53880;47.526;18.986;2023-03-23T06:10:46;99605.47;;;21.42;49.41
41246;BME280;53880;47.526;18.986;2023-03-23T06:13:06;99603.84;;;21.41;49.32
41246;BME280;53880;47.526;18.986;2023-03-23T06:15:29;99605.47;;;21.42;49.12
41246;BME280;53880;47.526;18.986;2023-03-23T06:17:46;99602.81;;;21.42;49.26
41246;BME280;53880;47.526;18.986;2023-03-23T06:20:07;99601.81;;;21.43;49.38
41246;BME280;53880;47.526;18.986;2023-03-23T06:22:28;99598.94;;;21.45;48.98
41246;BME280;53880;47.526;18.986;2023-03-23T06:25:00;99596.25;;;21.45;48.80
41246;BME280;53880;47.526;18.986;2023-03-23T06:27:24;99597.94;;;21.46;48.99
41246;BME280;53880;47.526;18.986;2023-03-23T06:29:45;99597.09;;;21.45;48.65
41246;BME280;53880;47.526;18.986;2023-03-23T06:32:04;99599.78;;;21.45;48.67
41246;BME280;53880;47.526;18.986;2023-03-23T06:34:24;99582.88;;;21.45;48.77
41246;BME280;53880;47.526;18.986;2023-03-23T06:37:06;99585.72;;;21.43;48.67
41246;BME280;53880;47.526;18.986;2023-03-23T06:39:29;99578.88;;;21.41;48.83
41246;BME280;53880;47.526;18.986;2023-03-23T06:41:58;99597.63;;;21.41;48.62
41246;BME280;53880;47.526;18.986;2023-03-23T06:44:20;99594.94;;;21.41;48.81
41246;BME280;53880;47.526;18.986;2023-03-23T06:46:40;99600.13;;;21.42;48.78
41246;BME280;53880;47.526;18.986;2023-03-23T06:49:13;99598.47;;;21.41;48.63
41246;BME280;53880;47.526;18.986;2023-03-23T06:51:37;99594.44;;;21.37;48.63
41246;BME280;53880;47.526;18.986;2023-03-23T06:53:56;99604.50;;;21.35;48.39
41246;BME280;53880;47.526;18.986;2023-03-23T06:56:14;99600.50;;;21.31;48.74
41246;BME280;53880;47.526;18.986;2023-03-23T06:58:33;99607.41;;;21.25;48.73
41246;BME280;53880;47.526;18.986;2023-03-23T07:00:56;99601.72;;;21.20;48.78
41246;BME280;53880;47.526;18.986;2023-03-23T07:03:18;99603.72;;;21.18;48.79
41246;BME280;53880;47.526;18.986;2023-03-23T07:05:36;99598.56;;;21.17;48.86
41246;BME280;53880;47.526;18.986;2023-03-23T07:07:57;99600.56;;;21.15;49.05
41246;BME280;53880;47.526;18.986;2023-03-23T07:10:22;99612.28;;;21.14;49.22
41246;BME280;53880;47.526;18.986;2023-03-23T07:12:42;99603.59;;;21.12;49.01
41246;BME280;53880;47.526;18.986;2023-03-23T07:14:59;99610.78;;;21.11;49.27
41246;BME280;53880;47.526;18.986;2023-03-23T07:17:16;99614.66;;;21.09;49.20
41246;BME280;53880;47.526;18.986;2023-03-23T07:19:50;99610.78;;;21.11;49.58
41246;BME280;53880;47.526;18.986;2023-03-23T07:22:07;99610.94;;;21.18;49.87
41246;BME280;53880;47.526;18.986;2023-03-23T07:24:23;99614.59;;;21.25;49.92
41246;BME280;53880;47.526;18.986;2023-03-23T07:27:00;99618.97;;;21.26;49.71
41246;BME280;53880;47.526;18.986;2023-03-23T07:29:19;99624.47;;;21.24;49.62
41246;BME280;53880;47.526;18.986;2023-03-23T07:31:38;99622.81;;;21.23;49.81
41246;BME280;53880;47.526;18.986;2023-03-23T07:33:54;99624.84;;;21.21;49.60
41246;BME280;53880;47.526;18.986;2023-03-23T07:36:12;99624.66;;;21.23;49.32
41246;BME280;53880;47.526;18.986;2023-03-23T07:38:30;99629.34;;;21.21;49.55
41246;BME280;53880;47.526;18.986;2023-03-23T07:40:47;99625.81;;;21.20;49.66
41246;BME280;53880;47.526;18.986;2023-03-23T07:43:06;99635.53;;;21.21;49.71
41246;BME280;53880;47.526;18.986;2023-03-23T07:45:42;99633.03;;;21.20;49.97
41246;BME280;53880;47.526;18.986;2023-03-23T07:47:58;99634.22;;;21.17;49.87
41246;BME280;53880;47.526;18.986;2023-03-23T07:50:14;99631.53;;;21.17;49.85
41246;BME280;53880;47.526;18.986;2023-03-23T07:52:36;99632.53;;;21.16;49.95
41246;BME280;53880;47.526;18.986;2023-03-23T07:54:56;99630.88;;;21.15;49.07
41246;BME280;53880;47.526;18.986;2023-03-23T07:57:35;99631.41;;;21.11;47.94
41246;BME280;53880;47.526;18.986;2023-03-23T07:59:52;99634.41;;;21.08;47.20
41246;BME280;53880;47.526;18.986;2023-03-23T08:02:13;99624.69;;;21.07;46.20
41246;BME280;53880;47.526;18.986;2023-03-23T08:04:44;99624.69;;;21.07;44.95
41246;BME280;53880;47.526;18.986;2023-03-23T08:07:14;99622.69;;;21.09;45.22
41246;BME280;53880;47.526;18.986;2023-03-23T08:09:40;99625.34;;;21.17;45.46
41246;BME280;53880;47.526;18.986;2023-03-23T08:12:31;99627.28;;;21.31;46.11
41246;BME280;53880;47.526;18.986;2023-03-23T08:15:13;99625.75;;;21.45;45.78
41246;BME280;53880;47.526;18.986;2023-03-23T08:17:49;99626.50;;;21.61;46.15
41246;BME280;53880;47.526;18.986;2023-03-23T08:20:25;99630.78;;;21.78;46.11
41246;BME280;53880;47.526;18.986;2023-03-23T08:23:03;99624.19;;;21.97;46.27
41246;BME280;53880;47.526;18.986;2023-03-23T08:25:35;99635.94;;;22.19;45.83
41246;BME280;53880;47.526;18.986;2023-03-23T08:28:07;99635.47;;;22.38;45.89
41246;BME280;53880;47.526;18.986;2023-03-23T08:30:51;99635.81;;;22.57;45.61
41246;BME280;53880;47.526;18.986;2023-03-23T08:33:36;99633.84;;;22.74;45.61
41246;BME280;53880;47.526;18.986;2023-03-23T08:36:32;99629.31;;;22.89;45.63
41246;BME280;53880;47.526;18.986;2023-03-23T08:39:10;99633.88;;;23.03;45.39
41246;BME280;53880;47.526;18.986;2023-03-23T08:41:51;99626.19;;;23.15;45.39
41246;BME280;53880;47.526;18.986;2023-03-23T08:44:29;99628.44;;;23.26;45.32
41246;BME280;53880;47.526;18.986;2023-03-23T08:47:22;99618.25;;;23.36;45.57
41246;BME280;53880;47.526;18.986;2023-03-23T08:50:14;99618.81;;;23.46;45.33
41246;BME280;53880;47.526;18.986;2023-03-23T08:52:52;99619.56;;;23.55;45.58
41246;BME280;53880;47.526;18.986;2023-03-23T08:55:40;99623.97;;;23.62;45.64
41246;BME280;53880;47.526;18.986;2023-03-23T08:58:13;99624.06;;;23.69;45.76
41246;BME280;53880;47.526;18.986;2023-03-23T09:01:04;99614.22;;;23.76;45.60
41246;BME280;53880;47.526;18.986;2023-03-23T09:03:35;99624.03;;;23.83;45.56
41246;BME280;53880;47.526;18.986;2023-03-23T09:06:09;99617.34;;;23.79;44.54
41246;BME280;53880;47.526;18.986;2023-03-23T09:08:34;99611.66;;;23.53;39.79
41246;BME280;53880;47.526;18.986;2023-03-23T09:10:52;99613.28;;;23.33;37.35
41246;BME280;53880;47.526;18.986;2023-03-23T09:13:12;99618.97;;;23.15;38.89
41246;BME280;53880;47.526;18.986;2023-03-23T09:15:30;99617.78;;;23.18;40.09
41246;BME280;53880;47.526;18.986;2023-03-23T09:17:52;99618.53;;;23.26;40.29
41246;BME280;53880;47.526;18.986;2023-03-23T09:20:17;99610.59;;;23.33;40.78
41246;BME280;53880;47.526;18.986;2023-03-23T09:22:36;99611.69;;;23.38;40.86
41246;BME280;53880;47.526;18.986;2023-03-23T09:24:54;99609.91;;;23.45;40.84
41246;BME280;53880;47.526;18.986;2023-03-23T09:27:09;99610.19;;;23.51;41.18
41246;BME280;53880;47.526;18.986;2023-03-23T09:29:29;99616.03;;;23.54;41.59
41246;BME280;53880;47.526;18.986;2023-03-23T09:31:49;99612.13;;;23.57;41.84
41246;BME280;53880;47.526;18.986;2023-03-23T09:34:07;99609.06;;;23.60;42.42
41246;BME280;53880;47.526;18.986;2023-03-23T09:36:27;99610.94;;;23.59;42.69
41246;BME280;53880;47.526;18.986;2023-03-23T09:38:47;99612.38;;;23.62;42.96
41246;BME280;53880;47.526;18.986;2023-03-23T09:46:24;99611.28;;;23.56;43.96
41246;BME280;53880;47.526;18.986;2023-03-23T09:48:57;99619.53;;;23.25;38.46
41246;BME280;53880;47.526;18.986;2023-03-23T09:56:36;99609.00;;;22.72;39.27
41246;BME280;53880;47.526;18.986;2023-03-23T09:58:55;99606.28;;;22.57;40.20
41246;BME280;53880;47.526;18.986;2023-03-23T10:01:37;99616.94;;;22.43;40.76
41246;BME280;53880;47.526;18.986;2023-03-23T10:04:40;99614.75;;;22.24;39.28
41246;BME280;53880;47.526;18.986;2023-03-23T10:07:15;99610.63;;;22.13;39.08
41246;BME280;53880;47.526;18.986;2023-03-23T10:09:35;99602.66;;;22.05;39.39
41246;BME280;53880;47.526;18.986;2023-03-23T10:12:06;99595.78;;;22.02;39.28
41246;BME280;53880;47.526;18.986;2023-03-23T10:16:55;99596.84;;;21.93;40.74
41246;BME280;53880;47.526;18.986;2023-03-23T10:22:09;99589.06;;;21.84;41.49
41246;BME280;53880;47.526;18.986;2023-03-23T10:24:59;99585.19;;;21.78;40.86
41246;BME280;53880;47.526;18.986;2023-03-23T10:35:14;99582.78;;;21.61;40.34
41246;BME280;53880;47.526;18.986;2023-03-23T10:37:40;99586.47;;;21.60;40.19
41246;BME280;53880;47.526;18.986;2023-03-23T10:40:02;99580.78;;;21.55;40.34
41246;BME280;53880;47.526;18.986;2023-03-23T10:42:33;99570.56;;;21.58;40.82
41246;BME280;53880;47.526;18.986;2023-03-23T10:44:55;99563.47;;;21.65;40.74
41246;BME280;53880;47.526;18.986;2023-03-23T10:47:13;99570.47;;;21.74;40.99
41246;BME280;53880;47.526;18.986;2023-03-23T10:49:38;99576.63;;;21.83;40.87
41246;BME280;53880;47.526;18.986;2023-03-23T10:55:16;99573.22;;;21.97;41.08
41246;BME280;53880;47.526;18.986;2023-03-23T10:57:37;99578.84;;;22.02;41.27
41246;BME280;53880;47.526;18.986;2023-03-23T11:00:01;99568.63;;;22.06;41.51
41246;BME280;53880;47.526;18.986;2023-03-23T11:02:25;99571.31;;;22.06;41.70
41246;BME280;53880;47.526;18.986;2023-03-23T11:04:57;99565.16;;;21.97;40.97
41246;BME280;53880;47.526;18.986;2023-03-23T11:07:25;99565.75;;;21.84;40.67
41246;BME280;53880;47.526;18.986;2023-03-23T11:09:54;99565.59;;;21.78;41.16
41246;BME280;53880;47.526;18.986;2023-03-23T11:12:20;99564.09;;;21.75;41.22
41246;BME280;53880;47.526;18.986;2023-03-23T11:14:38;99560.59;;;21.75;41.47
41246;BME280;53880;47.526;18.986;2023-03-23T11:17:02;99554.38;;;21.74;41.69
41246;BME280;53880;47.526;18.986;2023-03-23T11:19:30;99546.34;;;21.74;41.37
41246;BME280;53880;47.526;18.986;2023-03-23T11:21:53;99538.28;;;21.74;41.35
41246;BME280;53880;47.526;18.986;2023-03-23T11:24:09;99533.97;;;21.73;41.51
41246;BME280;53880;47.526;18.986;2023-03-23T11:26:30;99533.97;;;21.73;41.71
41246;BME280;53880;47.526;18.986;2023-03-23T11:31:22;99541.03;;;21.66;42.42
41246;BME280;53880;47.526;18.986;2023-03-23T11:33:57;99543.25;;;21.63;42.94
41246;BME280;53880;47.526;18.986;2023-03-23T11:36:15;99541.91;;;21.59;43.22
41246;BME280;53880;47.526;18.986;2023-03-23T11:38:33;99547.81;;;21.54;42.87
41246;BME280;53880;47.526;18.986;2023-03-23T11:40:52;99540.13;;;21.51;42.60
41246;BME280;53880;47.526;18.986;2023-03-23T11:43:14;99539.78;;;21.46;42.28
41246;BME280;53880;47.526;18.986;2023-03-23T11:45:40;99535.47;;;21.45;42.64
41246;BME280;53880;47.526;18.986;2023-03-23T11:51:05;99532.47;;;21.40;42.77
41246;BME280;53880;47.526;18.986;2023-03-23T11:56:31;99530.94;;;21.46;43.81
41246;BME280;53880;47.526;18.986;2023-03-23T11:58:48;99527.56;;;21.44;44.12
41246;BME280;53880;47.526;18.986;2023-03-23T12:01:28;99520.38;;;21.44;44.04
41246;BME280;53880;47.526;18.986;2023-03-23T12:09:07;99510.16;;;21.48;44.50
41246;BME280;53880;47.526;18.986;2023-03-23T12:22:40;99482.16;;;21.73;44.32
41246;BME280;53880;47.526;18.986;2023-03-23T12:28:06;99482.16;;;21.73;44.34
41246;BME280;53880;47.526;18.986;2023-03-23T12:30:04;99484.84;;;21.73;44.54
41246;BME280;53880;47.526;18.986;2023-03-23T12:45:00;99470.41;;;21.74;44.85
41246;BME280;53880;47.526;18.986;2023-03-23T12:47:31;99462.56;;;21.72;44.86
41246;BME280;53880;47.526;18.986;2023-03-23T12:49:58;99457.19;;;21.72;45.02
41246;BME280;53880;47.526;18.986;2023-03-23T12:52:21;99460.91;;;21.71;45.04
41246;BME280;53880;47.526;18.986;2023-03-23T12:57:27;99453.88;;;21.70;44.98
41246;BME280;53880;47.526;18.986;2023-03-23T13:02:27;99452.22;;;21.69;45.00
41246;BME280;53880;47.526;18.986;2023-03-23T13:05:01;99449.53;;;21.69;45.18
41246;BME280;53880;47.526;18.986;2023-03-23T13:07:32;99451.38;;;21.69;45.23
41246;BME280;53880;47.526;18.986;2023-03-23T13:10:03;99448.69;;;21.69;45.19
41246;BME280;53880;47.526;18.986;2023-03-23T13:12:25;99455.91;;;21.68;45.47
41246;BME280;53880;47.526;18.986;2023-03-23T13:25:05;99445.97;;;21.54;45.68
41246;BME280;53880;47.526;18.986;2023-03-23T13:27:25;99441.13;;;21.50;45.76
41246;BME280;53880;47.526;18.986;2023-03-23T13:29:46;99432.78;;;21.45;46.07
41246;BME280;53880;47.526;18.986;2023-03-23T13:32:18;99442.38;;;21.39;44.97
41246;BME280;53880;47.526;18.986;2023-03-23T13:34:40;99444.38;;;21.37;45.01
41246;BME280;53880;47.526;18.986;2023-03-23T13:37:02;99441.03;;;21.35;44.59
41246;BME280;53880;47.526;18.986;2023-03-23T13:39:25;99438.94;;;21.31;44.59
41246;BME280;53880;47.526;18.986;2023-03-23T13:47:14;99424.56;;;21.23;43.98
41246;BME280;53880;47.526;18.986;2023-03-23T13:49:32;99423.72;;;21.23;44.19
41246;BME280;53880;47.526;18.986;2023-03-23T13:52:02;99426.59;;;21.21;44.21
41246;BME280;53880;47.526;18.986;2023-03-23T13:54:40;99425.09;;;21.19;43.99
41246;BME280;53880;47.526;18.986;2023-03-23T13:57:00;99418.69;;;21.20;44.17
41246;BME280;53880;47.526;18.986;2023-03-23T13:59:35;99410.50;;;21.21;44.36
41246;BME280;53880;47.526;18.986;2023-03-23T14:04:31;99411.03;;;21.17;44.15
41246;BME280;53880;47.526;18.986;2023-03-23T14:06:53;99410.50;;;21.21;44.28
41246;BME280;53880;47.526;18.986;2023-03-23T14:09:47;99413.97;;;21.30;44.18
41246;BME280;53880;47.526;18.986;2023-03-23T14:12:17;99417.44;;;21.39;44.57
41246;BME280;53880;47.526;18.986;2023-03-23T14:14:43;99406.81;;;21.45;44.65
41246;BME280;53880;47.526;18.986;2023-03-23T14:17:25;99415.78;;;21.52;44.78
41246;BME280;53880;47.526;18.986;2023-03-23T14:19:50;99408.06;;;21.57;44.65
41246;BME280;53880;47.526;18.986;2023-03-23T14:22:26;99403.19;;;21.61;44.79
41246;BME280;53880;47.526;18.986;2023-03-23T14:24:46;99409.00;;;21.64;45.06
41246;BME280;53880;47.526;18.986;2023-03-23T14:29:25;99399.41;;;21.70;45.28
41246;BME280;53880;47.526;18.986;2023-03-23T14:31:42;99409.13;;;21.71;45.27
41246;BME280;53880;47.526;18.986;2023-03-23T14:34:17;99410.63;;;21.73;45.73
41246;BME280;53880;47.526;18.986;2023-03-23T14:36:35;99390.81;;;21.74;45.45